createdAt,value
2022-08-05T00:00:16.502Z,40.70
2022-08-05T00:02:50.458Z,39.60
2022-08-05T00:06:02.011Z,39.30
2022-08-05T00:08:35.283Z,39.40
2022-08-05T00:10:55.487Z,38.70
2022-08-05T00:13:38.981Z,37.80
2022-08-05T00:16:08.914Z,37.80
2022-08-05T00:18:38.388Z,40.60
2022-08-05T00:21:06.961Z,40.40
2022-08-05T00:23:46.681Z,41.20
2022-08-05T00:26:22.392Z,43.20
2022-08-05T00:28:50.882Z,42.20
2022-08-05T00:31:54.474Z,43.10
2022-08-05T00:34:55.924Z,43.30
2022-08-05T00:37:10.574Z,43.40
2022-08-05T00:39:57.120Z,43.00
2022-08-05T00:42:33.196Z,44.30
2022-08-05T00:45:01.311Z,43.00
2022-08-05T00:47:31.584Z,43.10
2022-08-05T00:50:18.830Z,44.00
2022-08-05T00:52:49.206Z,44.70
2022-08-05T00:55:17.485Z,44.00
2022-08-05T00:57:58.045Z,44.80
2022-08-05T01:00:27.598Z,43.80
2022-08-05T01:02:55.903Z,46.30
2022-08-05T01:05:27.401Z,44.90
2022-08-05T01:08:42.369Z,46.30
2022-08-05T01:10:52.205Z,46.60
2022-08-05T01:13:27.341Z,45.80
2022-08-05T01:16:15.708Z,48.60
2022-08-05T01:18:56.681Z,47.40
2022-08-05T01:21:38.601Z,47.30
2022-08-05T01:24:13.131Z,48.00
2022-08-05T01:26:49.314Z,47.80
2022-08-05T01:29:23.129Z,47.10
2022-08-05T01:31:52.771Z,48.00
2022-08-05T01:34:26.855Z,47.30
2022-08-05T01:36:57.461Z,47.30
2022-08-05T01:39:46.158Z,47.20
2022-08-05T01:42:17.461Z,47.50
2022-08-05T01:44:53.960Z,45.70
2022-08-05T01:47:23.108Z,45.80
2022-08-05T01:50:01.335Z,45.10
2022-08-05T01:52:30.604Z,45.10
2022-08-05T01:55:02.531Z,43.70
2022-08-05T01:58:29.945Z,43.40
2022-08-05T02:00:29.910Z,44.20
2022-08-05T02:02:59.876Z,44.60
2022-08-05T02:05:34.166Z,44.10
2022-08-05T02:08:04.125Z,43.40
2022-08-05T02:10:35.963Z,43.10
2022-08-05T02:13:16.252Z,43.90
2022-08-05T02:15:47.911Z,44.40
2022-08-05T02:18:30.615Z,44.60
2022-08-05T02:21:04.731Z,45.20
2022-08-05T02:23:35.777Z,46.00
2022-08-05T02:26:04.744Z,45.00
2022-08-05T02:28:38.326Z,45.20
2022-08-05T02:31:14.469Z,46.00
2022-08-05T02:33:45.302Z,46.00
2022-08-05T02:36:18.082Z,44.60
2022-08-05T02:38:53.534Z,44.80
2022-08-05T02:41:22.997Z,45.20
2022-08-05T02:44:02.774Z,46.10
2022-08-05T02:46:36.412Z,47.20
2022-08-05T02:49:22.272Z,47.40
2022-08-05T02:52:04.318Z,46.40
2022-08-05T02:54:37.158Z,46.30
2022-08-05T02:57:09.909Z,47.10
2022-08-05T02:59:55.208Z,47.70
2022-08-05T03:02:31.350Z,46.60
2022-08-05T03:04:59.551Z,46.40
2022-08-05T03:08:00.257Z,45.90
2022-08-05T03:10:21.712Z,45.70
2022-08-05T03:12:52.944Z,46.90
2022-08-05T03:15:21.028Z,46.90
2022-08-05T03:17:55.501Z,46.30
2022-08-05T03:20:24.831Z,47.70
2022-08-05T03:22:57.216Z,48.60
2022-08-05T03:25:32.834Z,48.20
2022-08-05T03:28:02.881Z,47.70
2022-08-05T03:30:33.973Z,48.10
2022-08-05T03:33:05.696Z,48.10
2022-08-05T03:35:40.853Z,47.60
2022-08-05T03:38:10.074Z,47.90
2022-08-05T03:40:41.406Z,48.10
2022-08-05T03:43:59.235Z,48.10
2022-08-05T03:46:01.526Z,48.10
2022-08-05T03:48:35.119Z,46.80
2022-08-05T03:52:36.629Z,47.80
2022-08-05T03:55:00.220Z,48.60
2022-08-05T03:56:47.520Z,48.20
2022-08-05T03:59:20.251Z,49.00
2022-08-05T04:01:50.242Z,49.10
2022-08-05T04:04:21.339Z,49.20
2022-08-05T04:06:51.270Z,48.40
2022-08-05T04:09:20.300Z,47.80
2022-08-05T04:11:54.334Z,47.00
2022-08-05T04:14:30.179Z,46.70
2022-08-05T04:17:00.020Z,47.20
2022-08-05T04:19:30.421Z,48.10
2022-08-05T04:22:09.131Z,48.10
2022-08-05T04:24:44.433Z,49.10
2022-08-05T04:27:42.225Z,52.50
2022-08-05T04:30:10.052Z,53.90
2022-08-05T04:32:38.157Z,53.50
2022-08-05T04:35:17.557Z,54.40
2022-08-05T04:38:00.672Z,52.70
2022-08-05T04:40:33.971Z,52.90
2022-08-05T04:43:02.107Z,55.70
2022-08-05T04:45:47.748Z,54.60
2022-08-05T04:48:18.484Z,55.70
2022-08-05T04:51:02.829Z,55.50
2022-08-05T04:53:38.836Z,57.50
2022-08-05T04:56:32.912Z,57.20
2022-08-05T04:58:55.997Z,57.00
2022-08-05T05:02:08.030Z,57.40
2022-08-05T05:04:12.896Z,57.00
2022-08-05T05:06:44.904Z,56.80
2022-08-05T05:09:18.366Z,56.60
2022-08-05T05:11:54.138Z,56.20
2022-08-05T05:14:27.909Z,57.90
2022-08-05T05:16:59.984Z,57.00
2022-08-05T05:19:36.982Z,56.90
2022-08-05T05:22:24.301Z,56.70
2022-08-05T05:24:57.527Z,55.70
2022-08-05T05:27:44.567Z,55.80
2022-08-05T05:30:28.899Z,56.20
2022-08-05T05:33:00.613Z,56.40
2022-08-05T05:35:37.662Z,55.50
2022-08-05T05:38:09.334Z,54.10
2022-08-05T05:40:50.120Z,53.70
2022-08-05T05:43:28.155Z,54.20
2022-08-05T05:46:12.207Z,54.60
2022-08-05T05:48:44.672Z,56.00
2022-08-05T05:51:19.705Z,54.10
2022-08-05T05:53:58.024Z,53.50
2022-08-05T05:56:33.347Z,52.20
2022-08-05T05:59:05.484Z,52.30
2022-08-05T06:01:38.197Z,52.00
2022-08-05T06:04:08.010Z,52.10
2022-08-05T06:06:36.333Z,51.40
2022-08-05T06:09:06.162Z,51.90
2022-08-05T06:11:39.348Z,51.50
2022-08-05T06:14:07.578Z,51.30
2022-08-05T06:16:37.271Z,51.10
2022-08-05T06:19:07.907Z,51.80
2022-08-05T06:21:42.899Z,50.90
2022-08-05T06:24:25.645Z,51.30
2022-08-05T06:26:53.994Z,51.60
2022-08-05T06:29:49.492Z,52.50
2022-08-05T06:32:20.872Z,55.70
2022-08-05T06:34:55.321Z,56.60
2022-08-05T06:37:56.635Z,58.00
2022-08-05T06:40:18.319Z,58.80
2022-08-05T06:42:51.609Z,57.50
2022-08-05T06:45:44.124Z,57.00
2022-08-05T06:48:36.988Z,57.00
2022-08-05T06:50:57.349Z,57.80
2022-08-05T06:53:27.803Z,56.60
2022-08-05T06:56:03.896Z,56.70
2022-08-05T06:58:36.456Z,58.00
2022-08-05T07:01:05.622Z,59.00
2022-08-05T07:03:33.836Z,58.00
2022-08-05T07:06:06.076Z,57.50
2022-08-05T07:08:43.210Z,56.40
2022-08-05T07:11:17.799Z,52.40
2022-08-05T07:14:08.045Z,52.60
2022-08-05T07:18:08.483Z,49.20
2022-08-05T07:22:35.868Z,46.90
2022-08-05T07:25:22.394Z,46.50
2022-08-05T07:27:57.304Z,46.20
2022-08-05T07:30:33.103Z,46.60
2022-08-05T07:33:05.117Z,46.50
2022-08-05T07:36:02.373Z,46.60
2022-08-05T07:38:33.246Z,44.80
2022-08-05T07:42:08.363Z,44.70
2022-08-05T07:43:56.406Z,45.40
2022-08-05T07:46:26.591Z,45.70
2022-08-05T07:49:03.781Z,45.60
2022-08-05T07:51:37.079Z,46.30
2022-08-05T07:54:10.101Z,46.30
2022-08-05T07:57:00.380Z,45.30
2022-08-05T07:59:38.052Z,44.90
2022-08-05T08:02:15.335Z,44.30
2022-08-05T08:04:45.093Z,43.60
2022-08-05T08:07:13.683Z,43.20
2022-08-05T08:09:41.765Z,43.70
2022-08-05T08:12:27.429Z,42.90
2022-08-05T08:15:02.468Z,42.20
2022-08-05T08:17:33.002Z,41.10
2022-08-05T08:20:43.506Z,41.60
2022-08-05T08:22:54.215Z,41.80
2022-08-05T08:25:27.171Z,43.20
2022-08-05T08:28:18.495Z,42.90
2022-08-05T08:31:01.945Z,42.20
2022-08-05T08:33:36.158Z,42.20
2022-08-05T08:36:38.641Z,40.50
2022-08-05T08:38:56.791Z,39.60
2022-08-05T08:41:51.382Z,38.20
2022-08-05T08:45:19.238Z,38.30
2022-08-05T08:47:03.849Z,38.30
2022-08-05T08:50:06.213Z,37.20
2022-08-05T08:52:38.639Z,37.90
2022-08-05T08:55:13.122Z,38.50
2022-08-05T08:57:42.146Z,38.90
2022-08-05T09:00:25.998Z,38.30
2022-08-05T09:02:55.738Z,38.60
2022-08-05T09:05:38.419Z,36.90
2022-08-05T09:08:12.020Z,38.80
2022-08-05T09:10:42.184Z,38.40
2022-08-05T09:13:15.316Z,37.70
2022-08-05T09:15:43.979Z,38.30
2022-08-05T09:18:13.614Z,36.80
2022-08-05T09:20:44.395Z,37.40
2022-08-05T09:23:18.688Z,37.10
2022-08-05T09:26:02.880Z,36.30
2022-08-05T09:28:34.938Z,35.90
2022-08-05T09:31:18.211Z,36.30
2022-08-05T09:33:56.261Z,35.70
2022-08-05T09:36:27.656Z,36.80
2022-08-05T09:39:02.399Z,36.00
2022-08-05T09:41:33.133Z,33.50
2022-08-05T09:44:07.204Z,33.30
2022-08-05T09:46:39.235Z,33.40
2022-08-05T09:49:54.853Z,32.90
2022-08-05T09:52:25.577Z,33.20
2022-08-05T09:54:58.634Z,35.00
2022-08-05T09:57:35.303Z,34.30
2022-08-05T10:00:07.878Z,34.10
2022-08-05T10:02:37.693Z,32.30
2022-08-05T10:05:11.324Z,34.10
2022-08-05T10:08:35.462Z,33.80
2022-08-05T10:10:37.548Z,32.30
2022-08-05T10:13:09.917Z,31.50
2022-08-05T10:15:41.387Z,32.00
2022-08-05T10:18:14.014Z,33.60
2022-08-05T10:20:47.717Z,33.80
2022-08-05T10:23:34.516Z,34.10
2022-08-05T10:26:07.138Z,31.40
2022-08-05T10:28:36.592Z,30.80
2022-08-05T10:32:48.446Z,31.00
2022-08-05T10:33:57.690Z,34.10
2022-08-05T10:36:27.597Z,33.80
2022-08-05T10:38:58.724Z,34.10
2022-08-05T10:41:44.940Z,30.80
2022-08-05T10:44:17.356Z,31.00
2022-08-05T10:46:46.410Z,30.90
2022-08-05T10:49:27.156Z,31.50
2022-08-05T10:52:05.148Z,31.80
2022-08-05T10:54:56.363Z,31.30
2022-08-05T10:57:29.361Z,30.40
2022-08-05T11:00:20.264Z,31.70
2022-08-05T11:03:25.435Z,35.10
2022-08-05T11:06:08.297Z,33.30
2022-08-05T11:09:13.178Z,33.00
2022-08-05T11:11:52.581Z,32.70
2022-08-05T11:14:49.425Z,33.00
2022-08-05T11:17:57.970Z,31.50
2022-08-05T11:20:45.192Z,32.50
2022-08-05T11:23:33.387Z,30.20
2022-08-05T11:26:08.854Z,30.20
2022-08-05T11:28:43.180Z,32.40
2022-08-05T11:31:57.943Z,31.90
2022-08-05T11:34:21.220Z,29.80
2022-08-05T11:36:54.161Z,30.60
2022-08-05T11:40:00.499Z,30.20
2022-08-05T11:42:40.236Z,33.00
2022-08-05T11:45:23.449Z,31.50
2022-08-05T11:47:57.315Z,32.00
2022-08-05T11:50:27.114Z,31.60
2022-08-05T11:52:58.021Z,30.60
2022-08-05T11:55:31.971Z,29.00
2022-08-05T11:58:10.423Z,30.50
2022-08-05T12:00:41.645Z,32.50
2022-08-05T12:03:29.010Z,29.50
2022-08-05T12:06:01.674Z,30.90
2022-08-05T12:08:31.566Z,32.80
2022-08-05T12:11:05.526Z,29.60
2022-08-05T12:13:48.697Z,29.90
2022-08-05T12:16:19.533Z,32.30
2022-08-05T12:18:52.406Z,30.20
2022-08-05T12:21:23.733Z,29.10
2022-08-05T12:23:55.863Z,30.00
2022-08-05T12:26:24.071Z,34.90
2022-08-05T12:28:53.544Z,32.60
2022-08-05T12:31:32.691Z,29.30
2022-08-05T12:34:14.636Z,31.30
2022-08-05T12:36:49.251Z,33.30
2022-08-05T12:39:17.782Z,35.10
2022-08-05T12:41:46.436Z,33.10
2022-08-05T12:44:32.658Z,34.50
2022-08-05T12:47:02.490Z,37.00
2022-08-05T12:50:04.719Z,35.70
2022-08-05T12:52:32.388Z,35.00
2022-08-05T12:55:23.040Z,37.20
2022-08-05T12:58:38.748Z,37.70
2022-08-05T13:02:03.859Z,38.30
2022-08-05T13:03:33.253Z,37.60
2022-08-05T13:06:01.570Z,37.40
2022-08-05T13:08:32.228Z,38.80
2022-08-05T13:11:02.064Z,38.10
2022-08-05T13:14:06.835Z,40.40
2022-08-05T13:16:20.849Z,39.50
2022-08-05T13:18:55.067Z,40.00
2022-08-05T13:21:27.894Z,39.80
2022-08-05T13:24:08.780Z,38.60
2022-08-05T13:26:37.124Z,39.00
2022-08-05T13:29:05.506Z,38.50
2022-08-05T13:32:04.394Z,39.70
2022-08-05T13:34:25.889Z,39.60
2022-08-05T13:36:54.316Z,40.50
2022-08-05T13:40:14.362Z,40.40
2022-08-05T13:42:14.296Z,41.20
2022-08-05T13:44:45.767Z,40.80
2022-08-05T13:47:34.606Z,41.50
2022-08-05T13:50:04.697Z,42.20
2022-08-05T13:52:35.561Z,41.30
2022-08-05T13:55:07.842Z,40.30
2022-08-05T13:57:50.652Z,39.80
2022-08-05T14:00:27.010Z,41.20
2022-08-05T14:02:57.301Z,41.20
2022-08-05T14:05:29.742Z,40.30
2022-08-05T14:08:21.242Z,38.60
2022-08-05T14:11:03.318Z,40.10
2022-08-05T14:13:48.112Z,39.80
2022-08-05T14:16:16.735Z,39.70
2022-08-05T14:18:46.649Z,38.00
2022-08-05T14:22:10.183Z,40.20
2022-08-05T14:24:02.808Z,40.50
2022-08-05T14:26:38.420Z,41.10
2022-08-05T14:29:16.018Z,40.90
2022-08-05T14:32:02.515Z,40.20
2022-08-05T14:34:35.219Z,41.80
2022-08-05T14:37:04.255Z,41.30
2022-08-05T14:39:49.679Z,41.00
2022-08-05T14:42:29.279Z,39.70
2022-08-05T14:44:57.573Z,39.80
2022-08-05T14:48:03.416Z,39.10
2022-08-05T14:50:19.106Z,39.00
2022-08-05T14:52:53.609Z,38.00
2022-08-05T14:55:25.626Z,40.60
2022-08-05T14:57:57.088Z,40.50
2022-08-05T15:00:25.228Z,41.10
2022-08-05T15:02:56.548Z,39.10
2022-08-05T15:05:29.915Z,39.20
2022-08-05T15:08:12.274Z,39.80
2022-08-05T15:10:46.235Z,38.30
2022-08-05T15:13:14.913Z,40.20
2022-08-05T15:15:55.984Z,42.00
2022-08-05T15:18:25.122Z,41.00
2022-08-05T15:20:54.540Z,40.60
2022-08-05T15:23:22.607Z,42.00
2022-08-05T15:25:52.362Z,40.80
2022-08-05T15:28:27.468Z,40.10
2022-08-05T15:30:56.062Z,40.60
2022-08-05T15:34:04.376Z,40.90
2022-08-05T15:36:17.459Z,40.60
2022-08-05T15:40:59.540Z,41.40
2022-08-05T15:41:57.835Z,41.70
2022-08-05T15:44:27.750Z,41.00
2022-08-05T15:46:56.011Z,40.70
2022-08-05T15:49:48.068Z,41.00
2022-08-05T15:52:16.603Z,42.70
2022-08-05T15:54:57.749Z,42.00
2022-08-05T15:57:27.176Z,42.70
2022-08-05T16:00:02.522Z,42.50
2022-08-05T16:02:31.235Z,42.40
2022-08-05T16:04:59.678Z,42.90
2022-08-05T16:07:29.593Z,42.00
2022-08-05T16:09:57.922Z,42.90
2022-08-05T16:12:26.241Z,43.80
2022-08-05T16:14:55.077Z,45.00
2022-08-05T16:17:23.244Z,44.90
2022-08-05T16:20:05.972Z,47.10
2022-08-05T16:22:41.642Z,47.40
2022-08-05T16:25:10.327Z,48.40
2022-08-05T16:27:59.704Z,49.00
2022-08-05T16:30:28.705Z,49.10
2022-08-05T16:32:57.607Z,49.20
2022-08-05T16:35:28.531Z,49.40
2022-08-05T16:38:16.014Z,49.40
2022-08-05T16:40:51.685Z,48.70
2022-08-05T16:43:24.135Z,48.70
2022-08-05T16:46:03.445Z,48.90
2022-08-05T16:48:36.979Z,49.10
2022-08-05T16:51:10.024Z,47.60
2022-08-05T16:54:04.705Z,49.90
2022-08-05T16:56:29.396Z,48.80
2022-08-05T16:58:57.827Z,48.10
2022-08-05T17:01:26.204Z,47.80
2022-08-05T17:03:54.885Z,50.00
2022-08-05T17:06:24.659Z,48.70
2022-08-05T17:08:54.738Z,47.90
2022-08-05T17:11:25.143Z,49.70
2022-08-05T17:13:54.736Z,47.80
2022-08-05T17:16:36.526Z,49.80
2022-08-05T17:19:07.464Z,48.60
2022-08-05T17:21:39.577Z,49.40
2022-08-05T17:24:14.273Z,48.70
2022-08-05T17:26:58.281Z,49.40
2022-08-05T17:29:33.195Z,49.20
2022-08-05T17:32:11.851Z,47.60
2022-08-05T17:34:46.259Z,47.30
2022-08-05T17:37:40.648Z,47.50
2022-08-05T17:40:10.170Z,47.60
2022-08-05T17:42:43.190Z,46.10
2022-08-05T17:45:20.317Z,46.90
2022-08-05T17:47:54.027Z,46.70
2022-08-05T17:50:29.509Z,47.30
2022-08-05T17:53:00.124Z,46.20
2022-08-05T17:55:38.491Z,45.30
2022-08-05T17:58:21.466Z,45.60
2022-08-05T18:00:51.044Z,45.00
2022-08-05T18:03:56.016Z,45.70
2022-08-05T18:06:11.797Z,47.30
2022-08-05T18:08:44.577Z,48.40
2022-08-05T18:11:24.165Z,45.80
2022-08-05T18:13:59.640Z,45.90
2022-08-05T18:16:27.962Z,47.20
2022-08-05T18:18:56.113Z,47.80
2022-08-05T18:21:26.190Z,47.90
2022-08-05T18:23:56.222Z,46.70
2022-08-05T18:26:28.947Z,47.60
2022-08-05T18:28:57.646Z,46.80
2022-08-05T18:31:25.820Z,47.80
2022-08-05T18:34:02.135Z,47.10
2022-08-05T18:36:30.245Z,49.70
2022-08-05T18:38:58.409Z,48.40
2022-08-05T18:41:53.691Z,49.30
2022-08-05T18:44:33.185Z,49.20
2022-08-05T18:47:03.909Z,50.10
2022-08-05T18:49:57.912Z,49.80
2022-08-05T18:52:37.975Z,49.80
2022-08-05T18:55:10.634Z,49.70
2022-08-05T18:57:43.684Z,48.70
2022-08-05T19:00:28.615Z,48.50
2022-08-05T19:03:03.688Z,49.60
2022-08-05T19:06:13.003Z,49.80
2022-08-05T19:08:21.857Z,49.10
2022-08-05T19:10:59.450Z,48.10
2022-08-05T19:13:35.971Z,48.60
2022-08-05T19:16:21.995Z,49.30
2022-08-05T19:18:54.065Z,47.70
2022-08-05T19:21:26.061Z,49.30
2022-08-05T19:24:05.218Z,48.30
2022-08-05T19:26:36.724Z,48.10
2022-08-05T19:29:35.450Z,46.80
2022-08-05T19:32:08.638Z,46.80
2022-08-05T19:34:39.922Z,47.10
2022-08-05T19:37:10.058Z,45.80
2022-08-05T19:39:45.469Z,47.30
2022-08-05T19:42:35.864Z,47.00
2022-08-05T19:45:07.202Z,45.60
2022-08-05T19:47:37.377Z,45.90
2022-08-05T19:50:07.578Z,47.40
2022-08-05T19:52:36.077Z,46.20
2022-08-05T19:55:06.837Z,46.70
2022-08-05T19:57:49.239Z,45.30
2022-08-05T20:00:25.297Z,46.90
2022-08-05T20:02:53.819Z,46.10
2022-08-05T20:05:24.405Z,45.80
2022-08-05T20:07:57.711Z,46.70
2022-08-05T20:10:27.279Z,45.90
2022-08-05T20:12:55.393Z,46.10
2022-08-05T20:15:52.366Z,48.80
2022-08-05T20:18:33.941Z,47.80
2022-08-05T20:21:01.068Z,46.20
2022-08-05T20:23:39.432Z,47.10
2022-08-05T20:26:17.958Z,47.00
2022-08-05T20:28:48.712Z,47.00
2022-08-05T20:31:21.700Z,46.30
2022-08-05T20:33:51.252Z,46.20
2022-08-05T20:36:19.611Z,45.80
2022-08-05T20:38:53.510Z,45.20
2022-08-05T20:41:27.378Z,45.50
2022-08-05T20:44:18.371Z,46.30
2022-08-05T20:46:58.807Z,46.30
2022-08-05T20:49:26.933Z,45.80
2022-08-05T20:51:57.325Z,45.60
2022-08-05T20:54:43.573Z,44.60
2022-08-05T20:57:42.593Z,46.30
2022-08-05T21:00:20.198Z,45.20
2022-08-05T21:02:57.037Z,46.70
2022-08-05T21:05:25.707Z,45.60
2022-08-05T21:08:06.383Z,44.70
2022-08-05T21:10:34.539Z,44.90
2022-08-05T21:13:11.180Z,44.60
2022-08-05T21:15:44.419Z,44.70
2022-08-05T21:18:20.646Z,45.00
2022-08-05T21:20:51.475Z,46.10
2022-08-05T21:23:21.039Z,45.70
2022-08-05T21:25:50.574Z,45.00
2022-08-05T21:28:18.848Z,45.10
2022-08-05T21:30:52.094Z,44.30
2022-08-05T21:33:21.905Z,44.20
2022-08-05T21:35:58.201Z,45.70
2022-08-05T21:38:26.824Z,45.40
2022-08-05T21:40:55.160Z,44.90
2022-08-05T21:43:24.785Z,43.40
2022-08-05T21:45:57.882Z,42.10
2022-08-05T21:48:31.780Z,42.60
2022-08-05T21:51:00.030Z,41.60
2022-08-05T21:53:28.150Z,43.30
2022-08-05T21:56:06.069Z,42.50
2022-08-05T21:58:57.223Z,41.90
2022-08-05T22:01:26.174Z,41.80
2022-08-05T22:03:56.121Z,42.00
2022-08-05T22:06:35.218Z,43.60
2022-08-05T22:09:14.017Z,42.30
2022-08-05T22:11:48.975Z,41.30
2022-08-05T22:14:32.931Z,41.50
2022-08-05T22:17:05.004Z,40.90
2022-08-05T22:20:00.269Z,42.70
2022-08-05T22:22:28.070Z,42.20
2022-08-05T22:25:18.136Z,41.40
2022-08-05T22:28:10.942Z,41.30
2022-08-05T22:30:55.380Z,41.60
2022-08-05T22:33:58.113Z,41.30
2022-08-05T22:36:15.670Z,41.60
2022-08-05T22:38:48.118Z,41.60
2022-08-05T22:42:04.386Z,41.80
2022-08-05T22:44:05.821Z,41.10
2022-08-05T22:46:33.910Z,40.70
2022-08-05T22:49:23.160Z,40.60
2022-08-05T22:52:05.861Z,41.40
2022-08-05T22:54:36.230Z,40.80
2022-08-05T22:57:04.755Z,40.60
2022-08-05T22:59:46.538Z,40.80
2022-08-05T23:02:28.848Z,42.10
2022-08-05T23:04:58.179Z,41.10
2022-08-05T23:07:31.653Z,41.40
2022-08-05T23:10:01.968Z,41.50
2022-08-05T23:12:32.894Z,40.60
2022-08-05T23:15:03.525Z,42.40
2022-08-05T23:17:34.656Z,40.30
2022-08-05T23:20:16.968Z,40.10
2022-08-05T23:22:48.294Z,39.50
2022-08-05T23:25:50.166Z,39.50
2022-08-05T23:28:06.854Z,40.40
2022-08-05T23:30:40.174Z,39.80
2022-08-05T23:33:16.378Z,39.10
2022-08-05T23:35:50.996Z,39.00
2022-08-05T23:38:20.470Z,39.00
2022-08-05T23:40:49.463Z,39.30
2022-08-05T23:43:25.487Z,39.30
2022-08-05T23:46:20.716Z,38.70
2022-08-05T23:49:00.567Z,38.40
2022-08-05T23:51:54.295Z,38.40
2022-08-05T23:54:25.045Z,39.90
2022-08-05T23:56:55.383Z,40.20
2022-08-05T23:59:37.372Z,39.60
